createdAt,value
2017-05-07T00:01:45.156Z,10.70
2017-05-07T00:04:12.513Z,10.80
2017-05-07T00:06:40.712Z,10.80
2017-05-07T00:09:08.841Z,10.70
2017-05-07T00:11:36.117Z,10.70
2017-05-07T00:14:03.570Z,10.80
2017-05-07T00:19:06.344Z,10.70
2017-05-07T00:21:33.652Z,10.60
2017-05-07T00:24:00.964Z,10.70
2017-05-07T00:26:28.251Z,10.80
2017-05-07T00:28:55.621Z,10.70
2017-05-07T00:31:22.884Z,10.80
2017-05-07T00:33:50.206Z,10.80
2017-05-07T00:36:17.482Z,10.80
2017-05-07T00:38:44.748Z,10.80
2017-05-07T00:41:12.077Z,10.80
2017-05-07T00:43:39.369Z,10.80
2017-05-07T00:46:06.934Z,10.80
2017-05-07T00:48:34.237Z,10.70
2017-05-07T00:51:01.543Z,10.70
2017-05-07T00:53:28.966Z,10.60
2017-05-07T00:55:56.336Z,10.60
2017-05-07T00:58:23.646Z,10.50
2017-05-07T01:00:50.967Z,10.60
2017-05-07T01:03:18.357Z,10.60
2017-05-07T01:05:45.968Z,10.70
2017-05-07T01:08:13.296Z,10.70
2017-05-07T01:10:40.632Z,10.70
2017-05-07T01:13:07.889Z,10.80
2017-05-07T01:15:35.128Z,10.80
2017-05-07T01:18:02.492Z,10.80
2017-05-07T01:20:29.788Z,10.70
2017-05-07T01:22:57.206Z,10.70
2017-05-07T01:25:24.524Z,10.70
2017-05-07T01:27:51.795Z,10.80
2017-05-07T01:30:19.093Z,10.70
2017-05-07T01:32:46.425Z,10.60
2017-05-07T01:35:13.688Z,10.70
2017-05-07T01:37:41.247Z,10.70
2017-05-07T01:40:08.665Z,10.60
2017-05-07T01:42:36.087Z,10.70
2017-05-07T01:45:03.352Z,10.80
2017-05-07T01:47:31.004Z,10.80
2017-05-07T01:49:58.413Z,10.80
2017-05-07T01:52:25.712Z,10.90
2017-05-07T01:54:53.066Z,10.90
2017-05-07T01:57:20.392Z,10.90
2017-05-07T01:59:47.688Z,10.80
2017-05-07T02:02:14.948Z,10.80
2017-05-07T02:04:42.237Z,10.90
2017-05-07T02:07:09.892Z,10.80
2017-05-07T02:09:37.171Z,10.80
2017-05-07T02:12:04.600Z,10.80
2017-05-07T02:14:31.917Z,10.80
2017-05-07T02:16:59.207Z,10.80
2017-05-07T02:19:26.535Z,10.70
2017-05-07T02:21:53.068Z,10.70
2017-05-07T02:24:20.336Z,10.70
2017-05-07T02:26:47.637Z,10.70
2017-05-07T02:29:14.943Z,10.60
2017-05-07T02:31:42.246Z,10.60
2017-05-07T02:34:09.491Z,10.70
2017-05-07T02:36:36.768Z,10.80
2017-05-07T02:39:04.044Z,10.70
2017-05-07T02:41:31.257Z,10.70
2017-05-07T02:43:58.489Z,10.70
2017-05-07T02:46:25.895Z,10.70
2017-05-07T02:48:53.617Z,10.60
2017-05-07T02:51:20.899Z,10.60
2017-05-07T02:53:49.018Z,10.60
2017-05-07T02:56:16.408Z,10.60
2017-05-07T02:58:43.671Z,10.50
2017-05-07T03:01:10.966Z,10.60
2017-05-07T03:03:38.238Z,10.50
2017-05-07T03:06:05.498Z,10.50
2017-05-07T03:08:32.765Z,10.60
2017-05-07T03:11:00.037Z,10.60
2017-05-07T03:13:27.377Z,10.60
2017-05-07T03:15:54.867Z,10.50
2017-05-07T03:18:22.163Z,10.50
2017-05-07T03:20:50.161Z,10.50
2017-05-07T03:23:17.432Z,10.60
2017-05-07T03:25:44.701Z,10.60
2017-05-07T03:28:12.086Z,10.60
2017-05-07T03:30:39.381Z,10.60
2017-05-07T03:33:07.411Z,10.60
2017-05-07T03:35:34.702Z,10.60
2017-05-07T03:38:02.854Z,10.60
2017-05-07T03:40:31.171Z,10.60
2017-05-07T03:42:59.221Z,10.60
2017-05-07T03:45:26.549Z,10.60
2017-05-07T03:47:53.877Z,10.60
2017-05-07T03:50:21.428Z,10.60
2017-05-07T03:52:49.446Z,10.60
2017-05-07T03:55:16.749Z,10.60
2017-05-07T03:57:44.021Z,10.60
2017-05-07T04:00:12.050Z,10.60
2017-05-07T04:02:39.299Z,10.60
2017-05-07T04:05:06.735Z,10.60
2017-05-07T04:07:33.995Z,10.60
2017-05-07T04:10:01.292Z,10.60
2017-05-07T04:12:28.595Z,10.70
2017-05-07T04:15:03.674Z,10.70
2017-05-07T04:17:31.009Z,10.70
2017-05-07T04:19:58.325Z,10.70
2017-05-07T04:22:25.756Z,10.70
2017-05-07T04:24:53.024Z,10.70
2017-05-07T04:27:20.315Z,10.70
2017-05-07T04:29:48.389Z,10.70
2017-05-07T04:32:15.845Z,10.70
2017-05-07T04:34:43.136Z,10.70
2017-05-07T04:37:10.596Z,10.80
2017-05-07T04:39:38.064Z,10.80
2017-05-07T04:42:05.334Z,10.80
2017-05-07T04:44:32.612Z,10.90
2017-05-07T04:46:59.865Z,10.90
2017-05-07T04:49:27.142Z,10.90
2017-05-07T04:51:54.492Z,10.90
2017-05-07T04:54:21.780Z,10.90
2017-05-07T04:56:49.202Z,11.00
2017-05-07T04:59:16.446Z,11.00
2017-05-07T05:01:43.696Z,11.00
2017-05-07T05:04:11.013Z,11.10
2017-05-07T05:06:38.398Z,11.20
2017-05-07T05:09:06.576Z,11.20
2017-05-07T05:11:34.568Z,11.20
2017-05-07T05:14:02.449Z,11.20
2017-05-07T05:16:29.722Z,11.30
2017-05-07T05:19:02.691Z,11.30
2017-05-07T05:21:45.862Z,11.30
2017-05-07T05:24:28.060Z,11.30
2017-05-07T05:27:10.190Z,11.30
2017-05-07T05:32:40.160Z,11.10
2017-05-07T05:35:07.469Z,11.10
2017-05-07T05:37:35.528Z,11.10
2017-05-07T05:40:02.993Z,11.20
2017-05-07T05:42:30.455Z,11.20
2017-05-07T05:44:58.451Z,11.20
2017-05-07T05:47:25.722Z,11.10
2017-05-07T05:49:52.968Z,11.10
2017-05-07T05:52:20.217Z,11.10
2017-05-07T05:54:48.407Z,11.00
2017-05-07T05:57:15.715Z,11.10
2017-05-07T05:59:43.010Z,11.10
2017-05-07T06:02:11.020Z,11.10
2017-05-07T06:04:38.248Z,11.20
2017-05-07T06:07:06.301Z,11.20
2017-05-07T06:09:33.670Z,11.20
2017-05-07T06:12:01.812Z,11.30
2017-05-07T06:14:29.113Z,11.40
2017-05-07T06:16:57.183Z,11.50
2017-05-07T06:19:25.216Z,11.60
2017-05-07T06:21:52.482Z,11.70
2017-05-07T06:24:19.733Z,11.70
2017-05-07T06:26:46.999Z,11.80
2017-05-07T06:29:14.316Z,11.80
2017-05-07T06:31:41.621Z,11.80
2017-05-07T06:34:08.912Z,11.80
2017-05-07T06:36:36.926Z,11.80
2017-05-07T06:39:04.259Z,11.80
2017-05-07T06:41:32.330Z,11.90
2017-05-07T06:44:00.438Z,11.90
2017-05-07T06:49:01.612Z,12.10
2017-05-07T06:51:28.875Z,12.10
2017-05-07T06:53:56.163Z,12.10
2017-05-07T06:56:23.403Z,12.10
2017-05-07T06:58:50.688Z,12.20
2017-05-07T07:01:17.992Z,12.10
2017-05-07T07:03:45.272Z,12.20
2017-05-07T07:06:12.537Z,12.20
2017-05-07T07:08:39.777Z,12.30
2017-05-07T07:11:07.027Z,12.30
2017-05-07T07:13:34.317Z,12.40
2017-05-07T07:16:01.616Z,12.30
2017-05-07T07:18:29.637Z,12.20
2017-05-07T07:20:56.908Z,12.10
2017-05-07T07:23:24.187Z,11.90
2017-05-07T07:25:51.439Z,11.90
2017-05-07T07:28:18.883Z,11.90
2017-05-07T07:30:46.140Z,11.80
2017-05-07T07:33:13.413Z,11.90
2017-05-07T07:35:40.668Z,12.00
2017-05-07T07:38:08.086Z,12.00
2017-05-07T07:40:35.323Z,12.10
2017-05-07T07:43:03.395Z,12.00
2017-05-07T07:45:31.425Z,12.10
2017-05-07T07:47:58.891Z,12.10
2017-05-07T07:50:26.310Z,12.10
2017-05-07T07:52:53.580Z,12.10
2017-05-07T07:55:27.877Z,12.30
2017-05-07T07:57:55.169Z,12.60
2017-05-07T08:00:22.531Z,12.90
2017-05-07T08:02:49.820Z,13.10
2017-05-07T08:05:17.076Z,13.00
2017-05-07T08:07:44.528Z,12.80
2017-05-07T08:10:18.903Z,12.60
2017-05-07T08:12:46.168Z,12.50
2017-05-07T08:15:13.425Z,12.40
2017-05-07T08:17:40.815Z,12.50
2017-05-07T08:20:08.132Z,12.60
2017-05-07T08:22:35.412Z,12.80
2017-05-07T08:25:02.788Z,12.80
2017-05-07T08:27:30.101Z,12.90
2017-05-07T09:21:46.071Z,13.10
2017-05-07T09:26:47.259Z,13.30
2017-05-07T09:29:14.632Z,13.50
2017-05-07T09:31:41.929Z,13.30
2017-05-07T09:34:09.958Z,13.20
2017-05-07T09:36:37.288Z,13.30
2017-05-07T09:39:04.639Z,13.20
2017-05-07T09:41:31.970Z,13.50
2017-05-07T09:43:59.239Z,13.70
2017-05-07T09:46:27.339Z,13.90
2017-05-07T09:48:54.732Z,14.30
2017-05-07T09:51:21.983Z,14.50
2017-05-07T09:53:49.333Z,14.20
2017-05-07T09:56:16.681Z,14.20
2017-05-07T09:58:44.018Z,14.20
2017-05-07T10:01:12.098Z,14.10
2017-05-07T10:03:40.118Z,14.10
2017-05-07T10:06:07.380Z,14.10
2017-05-07T10:08:34.950Z,14.20
2017-05-07T10:11:01.993Z,14.60
2017-05-07T10:13:29.285Z,14.80
2017-05-07T10:15:56.663Z,14.70
2017-05-07T10:18:24.724Z,14.80
2017-05-07T10:20:52.077Z,15.00
2017-05-07T10:23:19.385Z,14.90
2017-05-07T10:25:46.697Z,14.60
2017-05-07T10:28:14.061Z,14.00
2017-05-07T10:30:41.343Z,13.70
2017-05-07T10:33:08.614Z,13.10
2017-05-07T10:35:35.903Z,12.90
2017-05-07T10:38:03.173Z,12.70
2017-05-07T10:40:30.437Z,12.60
2017-05-07T10:42:57.688Z,12.60
2017-05-07T10:45:24.962Z,12.70
2017-05-07T10:47:52.269Z,12.70
2017-05-07T10:50:19.542Z,12.80
2017-05-07T10:52:46.875Z,13.00
2017-05-07T10:55:14.153Z,13.10
2017-05-07T10:57:41.417Z,13.40
2017-05-07T11:00:08.723Z,13.50
2017-05-07T11:02:36.029Z,13.60
2017-05-07T11:05:03.440Z,13.90
2017-05-07T11:07:30.692Z,14.30
2017-05-07T11:09:58.024Z,14.50
2017-05-07T11:12:25.317Z,14.40
2017-05-07T11:14:52.636Z,14.20
2017-05-07T11:17:19.903Z,13.90
2017-05-07T11:19:47.223Z,13.90
2017-05-07T11:22:14.549Z,14.00
2017-05-07T11:24:41.961Z,13.70
2017-05-07T11:27:09.292Z,13.40
2017-05-07T11:29:37.356Z,13.30
2017-05-07T11:32:05.372Z,13.40
2017-05-07T11:34:32.695Z,13.50
2017-05-07T11:37:00.796Z,13.50
2017-05-07T11:39:28.119Z,13.70
2017-05-07T11:41:55.373Z,13.80
2017-05-07T11:44:22.684Z,14.10
2017-05-07T11:46:49.960Z,14.30
2017-05-07T11:49:17.300Z,14.40
2017-05-07T11:51:44.663Z,14.20
2017-05-07T11:54:11.958Z,14.00
2017-05-07T11:56:39.253Z,13.70
2017-05-07T11:59:07.284Z,13.60
2017-05-07T12:01:34.633Z,13.60
2017-05-07T12:04:01.937Z,13.60
2017-05-07T12:06:29.949Z,13.70
2017-05-07T12:08:57.208Z,14.00
2017-05-07T12:11:24.547Z,14.30
2017-05-07T12:13:51.878Z,14.40
2017-05-07T12:16:19.217Z,14.40
2017-05-07T12:18:46.588Z,14.60
2017-05-07T12:21:13.944Z,14.70
2017-05-07T12:23:41.374Z,14.90
2017-05-07T12:26:08.706Z,14.90
2017-05-07T12:28:36.081Z,14.80
2017-05-07T12:31:03.457Z,14.40
2017-05-07T12:33:30.796Z,14.40
2017-05-07T12:35:58.054Z,14.50
2017-05-07T12:38:25.341Z,14.40
2017-05-07T12:40:52.630Z,14.50
2017-05-07T12:43:19.989Z,14.30
2017-05-07T12:45:47.313Z,14.00
2017-05-07T12:48:14.648Z,14.00
2017-05-07T12:50:42.009Z,13.90
2017-05-07T12:53:09.367Z,13.90
2017-05-07T12:55:36.627Z,13.40
2017-05-07T12:58:03.960Z,13.00
2017-05-07T13:00:32.033Z,12.70
2017-05-07T13:03:00.157Z,12.80
2017-05-07T13:05:27.641Z,12.70
2017-05-07T13:07:54.905Z,12.50
2017-05-07T13:10:22.213Z,12.50
2017-05-07T13:12:49.594Z,12.70
2017-05-07T13:15:16.867Z,12.90
2017-05-07T13:17:44.159Z,12.90
2017-05-07T13:20:11.439Z,13.00
2017-05-07T13:22:39.629Z,13.10
2017-05-07T13:25:06.958Z,13.10
2017-05-07T13:27:34.446Z,13.20
2017-05-07T13:30:01.747Z,13.40
2017-05-07T13:32:29.130Z,13.70
2017-05-07T13:34:56.524Z,13.90
2017-05-07T13:37:23.922Z,13.90
2017-05-07T13:39:51.404Z,13.80
2017-05-07T13:42:18.701Z,13.60
2017-05-07T13:44:46.812Z,13.30
2017-05-07T13:47:14.287Z,13.30
2017-05-07T13:49:41.676Z,13.40
2017-05-07T13:52:08.961Z,13.50
2017-05-07T13:54:37.075Z,13.50
2017-05-07T13:57:04.356Z,13.60
2017-05-07T13:59:31.658Z,13.40
2017-05-07T14:01:59.768Z,13.30
2017-05-07T14:04:27.091Z,13.20
2017-05-07T14:06:55.252Z,13.20
2017-05-07T14:09:22.613Z,13.40
2017-05-07T14:11:49.924Z,13.50
2017-05-07T14:14:17.306Z,13.50
2017-05-07T14:16:44.637Z,13.50
2017-05-07T14:19:11.921Z,13.40
2017-05-07T14:21:39.267Z,13.10
2017-05-07T14:24:06.584Z,13.00
2017-05-07T14:26:34.780Z,12.90
2017-05-07T14:29:02.077Z,12.80
2017-05-07T14:31:29.505Z,12.70
2017-05-07T14:33:56.920Z,12.70
2017-05-07T14:36:24.468Z,12.70
2017-05-07T14:38:51.880Z,12.70
2017-05-07T14:41:19.156Z,12.60
2017-05-07T14:43:46.589Z,12.50
2017-05-07T14:46:14.676Z,12.50
2017-05-07T14:48:41.989Z,12.50
2017-05-07T14:51:09.289Z,12.30
2017-05-07T14:53:37.393Z,12.20
2017-05-07T14:56:04.688Z,12.20
2017-05-07T14:58:32.097Z,12.10
2017-05-07T15:00:59.539Z,12.00
2017-05-07T15:05:43.780Z,12.00
2017-05-07T15:08:11.068Z,12.10
2017-05-07T15:10:38.447Z,12.00
2017-05-07T15:13:05.953Z,12.00
2017-05-07T15:15:33.257Z,12.00
2017-05-07T15:18:00.580Z,12.00
2017-05-07T15:20:27.969Z,12.10
2017-05-07T15:22:55.438Z,12.00
2017-05-07T15:25:22.736Z,12.00
2017-05-07T15:27:50.024Z,12.10
2017-05-07T15:30:17.298Z,12.10
2017-05-07T15:32:44.706Z,12.20
2017-05-07T15:35:12.001Z,12.20
2017-05-07T15:37:39.330Z,12.10
2017-05-07T15:40:06.719Z,12.10
2017-05-07T15:42:34.037Z,12.00
2017-05-07T15:45:01.442Z,11.90
2017-05-07T15:47:28.742Z,11.90
2017-05-07T15:49:56.062Z,11.90
2017-05-07T15:52:23.410Z,11.90
2017-05-07T15:54:50.768Z,11.90
2017-05-07T15:57:18.211Z,12.00
2017-05-07T15:59:45.624Z,12.00
2017-05-07T16:02:13.068Z,12.00
2017-05-07T16:04:40.407Z,12.00
2017-05-07T16:07:07.873Z,12.00
2017-05-07T16:09:35.216Z,12.10
2017-05-07T16:12:02.632Z,12.10
2017-05-07T16:14:30.009Z,12.10
2017-05-07T16:23:08.029Z,12.00
2017-05-07T16:25:56.958Z,11.80
2017-05-07T16:28:25.807Z,11.80
2017-05-07T16:30:53.125Z,11.90
2017-05-07T16:33:21.354Z,11.90
2017-05-07T16:35:48.672Z,11.90
2017-05-07T16:38:15.989Z,11.90
2017-05-07T16:40:43.322Z,11.90
2017-05-07T16:45:42.092Z,11.90
2017-05-07T16:48:10.187Z,11.80
2017-05-07T16:50:37.475Z,11.80
2017-05-07T16:53:04.758Z,11.80
2017-05-07T16:55:32.029Z,11.80
2017-05-07T16:57:59.346Z,11.80
2017-05-07T17:00:26.717Z,11.80
2017-05-07T17:03:13.962Z,11.80
2017-05-07T17:05:41.225Z,11.80
2017-05-07T17:08:09.277Z,11.80
2017-05-07T17:10:36.679Z,11.80
2017-05-07T17:13:04.898Z,11.80
2017-05-07T17:15:32.231Z,11.80
2017-05-07T17:17:59.543Z,11.80
2017-05-07T17:20:26.837Z,11.80
2017-05-07T17:22:55.064Z,11.80
2017-05-07T17:27:49.596Z,11.80
2017-05-07T17:30:17.043Z,11.80
2017-05-07T17:32:44.483Z,11.80
2017-05-07T17:35:11.855Z,11.80
2017-05-07T17:37:39.151Z,11.80
2017-05-07T17:40:06.518Z,11.80
2017-05-07T17:42:33.818Z,11.80
2017-05-07T17:45:01.136Z,11.80
2017-05-07T17:47:28.489Z,11.80
2017-05-07T17:49:55.793Z,11.80
2017-05-07T17:52:23.132Z,11.80
2017-05-07T17:54:50.495Z,11.80
2017-05-07T17:57:18.018Z,11.70
2017-05-07T17:59:45.349Z,11.80
2017-05-07T18:02:12.658Z,11.70
2017-05-07T18:04:39.937Z,11.80
2017-05-07T18:07:07.216Z,11.80
2017-05-07T18:09:34.565Z,11.70
2017-05-07T18:12:01.885Z,11.70
2017-05-07T18:14:29.186Z,11.70
2017-05-07T18:16:56.488Z,11.70
2017-05-07T18:19:23.783Z,11.70
2017-05-07T18:21:51.805Z,11.70
2017-05-07T18:24:19.152Z,11.70
2017-05-07T18:26:46.603Z,11.70
2017-05-07T18:29:14.018Z,11.60
2017-05-07T18:31:41.361Z,11.60
2017-05-07T18:34:08.698Z,11.60
2017-05-07T18:36:36.070Z,11.60
2017-05-07T18:39:03.328Z,11.60
2017-05-07T18:41:30.627Z,11.60
2017-05-07T18:43:58.721Z,11.60
2017-05-07T18:46:26.030Z,11.50
2017-05-07T18:48:53.404Z,11.50
2017-05-07T18:51:20.726Z,11.40
2017-05-07T18:53:48.054Z,11.40
2017-05-07T18:56:16.096Z,11.40
2017-05-07T18:58:43.377Z,11.40
2017-05-07T19:01:11.421Z,11.40
2017-05-07T19:03:39.439Z,11.40
2017-05-07T19:06:07.508Z,11.30
2017-05-07T19:08:35.548Z,11.30
2017-05-07T19:11:02.864Z,11.30
2017-05-07T19:13:30.163Z,11.30
2017-05-07T19:15:57.541Z,11.30
2017-05-07T19:18:24.889Z,11.30
2017-05-07T19:20:52.235Z,11.30
2017-05-07T19:23:19.563Z,11.30
2017-05-07T19:25:46.909Z,11.30
2017-05-07T19:28:14.944Z,11.30
2017-05-07T19:30:42.238Z,11.30
2017-05-07T19:33:10.302Z,11.30
2017-05-07T19:35:38.512Z,11.30
2017-05-07T19:38:05.886Z,11.30
2017-05-07T19:40:33.180Z,11.30
2017-05-07T19:43:00.590Z,11.40
2017-05-07T19:45:28.080Z,11.30
2017-05-07T19:47:55.367Z,11.30
2017-05-07T19:50:22.728Z,11.40
2017-05-07T19:52:50.103Z,11.40
2017-05-07T19:55:18.195Z,11.40
2017-05-07T19:57:46.303Z,11.30
2017-05-07T20:00:13.687Z,11.40
2017-05-07T20:02:41.023Z,11.40
2017-05-07T20:05:08.368Z,11.40
2017-05-07T20:07:35.662Z,11.40
2017-05-07T20:10:03.060Z,11.40
2017-05-07T20:12:31.232Z,11.30
2017-05-07T20:14:58.677Z,11.30
2017-05-07T20:17:26.231Z,11.30
2017-05-07T20:19:54.041Z,11.30
2017-05-07T20:22:21.412Z,11.30
2017-05-07T20:24:48.797Z,11.30
2017-05-07T20:27:16.154Z,11.20
2017-05-07T20:29:43.498Z,11.30
2017-05-07T20:32:10.814Z,11.30
2017-05-07T20:34:38.213Z,11.30
2017-05-07T20:37:06.360Z,11.30
2017-05-07T20:39:33.704Z,11.30
2017-05-07T20:42:01.126Z,11.30
2017-05-07T20:44:28.625Z,11.30
2017-05-07T20:46:55.904Z,11.20
2017-05-07T20:49:24.079Z,11.20
2017-05-07T20:51:51.469Z,11.20
2017-05-07T20:54:19.539Z,11.20
2017-05-07T20:56:47.617Z,11.20
2017-05-07T20:59:15.690Z,11.20
2017-05-07T21:01:43.022Z,11.20
2017-05-07T21:04:10.371Z,11.20
2017-05-07T21:06:37.722Z,11.20
2017-05-07T21:09:05.021Z,11.20
2017-05-07T21:11:32.453Z,11.20
2017-05-07T21:13:59.777Z,11.20
2017-05-07T21:16:27.245Z,11.20
2017-05-07T21:18:54.549Z,11.10
2017-05-07T21:21:21.846Z,11.10
2017-05-07T21:23:49.163Z,11.10
2017-05-07T21:26:16.511Z,11.10
2017-05-07T21:28:43.877Z,11.10
2017-05-07T21:31:11.204Z,11.10
2017-05-07T21:33:38.593Z,11.10
2017-05-07T21:36:05.901Z,11.10
2017-05-07T21:38:34.184Z,11.10
2017-05-07T21:41:01.504Z,11.10
2017-05-07T21:43:28.959Z,11.10
2017-05-07T21:45:56.264Z,11.20
2017-05-07T21:48:23.612Z,11.10
2017-05-07T21:50:50.147Z,11.10
2017-05-07T21:53:18.211Z,11.10
2017-05-07T21:55:45.627Z,11.10
2017-05-07T21:58:12.927Z,11.00
2017-05-07T22:00:40.345Z,11.10
2017-05-07T22:03:07.680Z,11.10
2017-05-07T22:05:35.804Z,11.10
2017-05-07T22:08:03.091Z,11.10
2017-05-07T22:10:30.474Z,11.10
2017-05-07T22:12:58.560Z,11.10
2017-05-07T22:15:25.867Z,11.10
2017-05-07T22:17:53.725Z,11.10
2017-05-07T22:20:21.596Z,11.10
2017-05-07T22:22:48.995Z,11.10
2017-05-07T22:25:17.037Z,11.00
2017-05-07T22:27:44.333Z,11.00
2017-05-07T22:30:11.792Z,11.00
2017-05-07T22:32:39.163Z,11.00
2017-05-07T22:35:07.206Z,11.00
2017-05-07T22:37:34.665Z,11.00
2017-05-07T22:40:02.022Z,11.00
2017-05-07T22:42:29.379Z,11.10
2017-05-07T22:44:56.700Z,11.10
2017-05-07T22:47:24.236Z,11.10
2017-05-07T22:49:51.565Z,11.10
2017-05-07T22:52:18.950Z,11.10
2017-05-07T22:54:46.285Z,11.10
2017-05-07T22:57:13.687Z,11.10
2017-05-07T22:59:41.710Z,11.10
2017-05-07T23:02:08.997Z,11.10
2017-05-07T23:04:36.337Z,11.10
2017-05-07T23:07:03.624Z,11.10
2017-05-07T23:09:31.004Z,11.20
2017-05-07T23:11:59.098Z,11.20
2017-05-07T23:14:26.412Z,11.20
2017-05-07T23:16:53.683Z,11.20
2017-05-07T23:19:21.020Z,11.30
2017-05-07T23:21:48.391Z,11.30
2017-05-07T23:24:15.659Z,11.20
2017-05-07T23:26:43.088Z,11.20
2017-05-07T23:29:10.436Z,11.20
2017-05-07T23:31:37.744Z,11.20
2017-05-07T23:34:04.972Z,11.20
2017-05-07T23:36:32.276Z,11.20
2017-05-07T23:39:00.378Z,11.10
2017-05-07T23:41:27.672Z,11.10
2017-05-07T23:43:55.045Z,11.00
2017-05-07T23:46:22.364Z,11.00
2017-05-07T23:48:49.636Z,11.00
2017-05-07T23:51:16.988Z,11.00
2017-05-07T23:53:44.259Z,11.00
2017-05-07T23:56:11.539Z,11.00
2017-05-07T23:58:38.791Z,11.00
